createdAt,value
2017-08-03T00:02:06.915Z,100229.89
2017-08-03T00:04:34.327Z,100229.36
2017-08-03T00:07:01.727Z,100225.59
2017-08-03T00:09:29.151Z,100221.91
2017-08-03T00:11:56.561Z,100213.39
2017-08-03T00:14:23.967Z,100218.27
2017-08-03T00:16:51.367Z,100205.01
2017-08-03T00:19:18.774Z,100210.28
2017-08-03T00:21:46.179Z,100213.94
2017-08-03T00:24:13.588Z,100216.80
2017-08-03T00:26:41.001Z,100204.61
2017-08-03T00:29:08.407Z,100193.79
2017-08-03T00:31:35.803Z,100187.02
2017-08-03T00:34:03.251Z,100197.02
2017-08-03T00:36:30.663Z,100192.28
2017-08-03T00:38:58.052Z,100180.10
2017-08-03T00:41:25.456Z,100171.43
2017-08-03T00:43:52.868Z,100163.88
2017-08-03T00:46:20.281Z,100165.08
2017-08-03T00:48:47.672Z,100149.52
2017-08-03T00:51:15.071Z,100135.02
2017-08-03T00:53:42.482Z,100139.34
2017-08-03T00:56:09.876Z,100141.02
2017-08-03T00:58:37.291Z,100133.41
2017-08-03T01:01:04.736Z,100123.67
2017-08-03T01:03:32.138Z,100126.52
2017-08-03T01:05:59.551Z,100115.84
2017-08-03T01:08:26.970Z,100120.70
2017-08-03T01:10:54.391Z,100123.29
2017-08-03T01:13:21.827Z,100128.17
2017-08-03T01:15:49.256Z,100127.34
2017-08-03T01:18:16.663Z,100114.64
2017-08-03T01:20:44.079Z,100119.08
2017-08-03T01:23:11.505Z,100118.29
2017-08-03T01:25:38.904Z,100113.52
2017-08-03T01:28:06.299Z,100105.14
2017-08-03T01:30:33.709Z,100084.32
2017-08-03T01:33:01.108Z,100069.80
2017-08-03T01:35:28.528Z,100086.32
2017-08-03T01:37:55.944Z,100109.03
2017-08-03T01:40:23.336Z,100101.73
2017-08-03T01:42:51.049Z,100081.03
2017-08-03T01:45:18.452Z,100083.47
2017-08-03T01:47:45.867Z,100075.38
2017-08-03T01:50:13.301Z,100077.41
2017-08-03T01:52:40.713Z,100087.14
2017-08-03T01:55:08.119Z,100085.67
2017-08-03T01:57:35.515Z,100069.70
2017-08-03T02:00:02.940Z,100061.14
2017-08-03T02:02:30.346Z,100056.52
2017-08-03T02:04:57.758Z,100049.11
2017-08-03T02:07:25.150Z,100053.02
2017-08-03T02:09:52.567Z,100053.31
2017-08-03T02:12:19.964Z,100050.34
2017-08-03T02:14:47.375Z,100057.08
2017-08-03T02:17:14.778Z,100070.91
2017-08-03T02:19:42.194Z,100056.67
2017-08-03T02:22:09.591Z,100045.96
2017-08-03T02:24:36.988Z,100036.22
2017-08-03T02:27:04.553Z,100037.84
2017-08-03T02:29:31.952Z,100047.31
2017-08-03T02:31:59.351Z,100055.05
2017-08-03T02:34:26.767Z,100035.02
2017-08-03T02:36:54.164Z,100010.55
2017-08-03T02:39:21.555Z,100034.22
2017-08-03T02:41:48.978Z,100043.81
2017-08-03T02:44:16.379Z,100022.95
2017-08-03T02:46:43.803Z,100041.38
2017-08-03T02:49:11.200Z,100035.95
2017-08-03T02:51:38.608Z,100039.08
2017-08-03T02:54:06.068Z,100026.59
2017-08-03T02:56:33.468Z,100014.30
2017-08-03T02:59:00.883Z,100028.33
2017-08-03T03:01:28.283Z,100051.76
2017-08-03T03:03:55.699Z,100023.06
2017-08-03T03:06:23.102Z,100007.13
2017-08-03T03:08:50.498Z,100007.66
2017-08-03T03:11:17.906Z,100022.54
2017-08-03T03:13:45.305Z,100017.02
2017-08-03T03:16:12.730Z,100023.66
2017-08-03T03:18:40.148Z,100003.09
2017-08-03T03:21:07.542Z,100015.28
2017-08-03T03:23:34.959Z,100009.42
2017-08-03T03:26:02.353Z,99992.27
2017-08-03T03:28:29.793Z,99986.15
2017-08-03T03:30:57.185Z,99983.25
2017-08-03T03:33:24.584Z,99994.38
2017-08-03T03:35:52.247Z,99999.68
2017-08-03T03:38:19.647Z,99995.85
2017-08-03T03:40:47.047Z,99993.29
2017-08-03T03:43:14.442Z,100009.69
2017-08-03T03:45:41.860Z,99995.09
2017-08-03T03:48:09.265Z,99986.26
2017-08-03T03:50:36.659Z,99979.76
2017-08-03T03:53:04.148Z,99971.78
2017-08-03T03:55:31.547Z,99974.80
2017-08-03T03:57:58.953Z,99971.67
2017-08-03T04:00:26.369Z,99980.20
2017-08-03T04:02:53.767Z,99985.58
2017-08-03T04:05:21.188Z,99975.55
2017-08-03T04:07:48.689Z,99971.34
2017-08-03T04:10:16.096Z,99974.61
2017-08-03T04:12:43.519Z,99964.41
2017-08-03T04:15:10.912Z,99954.67
2017-08-03T04:17:41.611Z,99954.27
2017-08-03T04:20:09.038Z,99945.31
2017-08-03T04:22:36.468Z,99941.09
2017-08-03T04:25:03.879Z,99943.01
2017-08-03T04:27:31.300Z,99929.73
2017-08-03T04:29:58.729Z,99932.66
2017-08-03T04:32:26.107Z,99931.56
2017-08-03T04:34:53.499Z,99931.98
2017-08-03T04:37:20.907Z,99912.66
2017-08-03T04:39:48.359Z,99919.28
2017-08-03T04:42:15.759Z,99928.19
2017-08-03T04:44:43.159Z,99934.02
2017-08-03T04:47:10.554Z,99949.43
2017-08-03T04:49:37.952Z,99944.43
2017-08-03T04:52:05.347Z,99948.08
2017-08-03T04:54:32.753Z,99939.80
2017-08-03T04:57:00.152Z,99949.00
2017-08-03T04:59:27.574Z,99944.55
2017-08-03T05:01:54.999Z,99955.50
2017-08-03T05:04:22.411Z,99949.09
2017-08-03T05:06:49.814Z,99962.63
2017-08-03T05:09:17.243Z,99956.48
2017-08-03T05:11:44.681Z,99946.48
2017-08-03T05:14:12.092Z,99951.33
2017-08-03T05:16:39.483Z,99951.63
2017-08-03T05:19:06.919Z,99945.66
2017-08-03T05:21:34.348Z,99944.19
2017-08-03T05:24:01.775Z,99962.42
2017-08-03T05:26:29.192Z,99970.86
2017-08-03T05:28:56.593Z,99973.00
2017-08-03T05:31:24.028Z,99970.56
2017-08-03T05:33:51.445Z,99956.33
2017-08-03T05:36:18.843Z,99926.00
2017-08-03T05:38:46.243Z,99921.27
2017-08-03T05:41:13.645Z,99933.36
2017-08-03T05:43:41.067Z,99936.63
2017-08-03T05:46:08.504Z,99941.90
2017-08-03T05:48:35.901Z,99939.83
2017-08-03T05:51:03.312Z,99937.79
2017-08-03T05:53:30.763Z,99938.62
2017-08-03T05:55:58.189Z,99932.10
2017-08-03T05:58:25.631Z,99929.97
2017-08-03T06:00:53.016Z,99931.42
2017-08-03T06:03:20.448Z,99925.70
2017-08-03T06:05:47.853Z,99930.02
2017-08-03T06:08:15.281Z,99929.19
2017-08-03T06:10:42.680Z,99933.55
2017-08-03T06:13:10.089Z,99939.92
2017-08-03T06:15:37.496Z,99932.14
2017-08-03T06:18:04.928Z,99932.41
2017-08-03T06:20:32.347Z,99922.35
2017-08-03T06:22:59.796Z,99927.23
2017-08-03T06:25:27.207Z,99932.39
2017-08-03T06:27:54.636Z,99938.95
2017-08-03T06:30:22.021Z,99932.78
2017-08-03T06:32:49.434Z,99923.66
2017-08-03T06:35:16.865Z,99927.55
2017-08-03T06:37:44.315Z,99930.28
2017-08-03T06:40:11.712Z,99928.40
2017-08-03T06:42:39.120Z,99907.09
2017-08-03T06:45:06.530Z,99905.39
2017-08-03T06:47:33.948Z,99909.72
2017-08-03T06:50:01.355Z,99905.05
2017-08-03T06:52:28.817Z,99919.75
2017-08-03T06:54:56.275Z,99932.95
2017-08-03T06:57:23.732Z,99946.17
2017-08-03T06:59:51.215Z,99951.53
2017-08-03T07:02:18.635Z,99950.28
2017-08-03T07:04:46.051Z,99967.21
2017-08-03T07:07:13.452Z,99961.11
2017-08-03T07:09:40.860Z,99960.02
2017-08-03T07:12:08.267Z,99961.11
2017-08-03T07:14:35.736Z,99964.23
2017-08-03T07:17:03.241Z,99962.87
2017-08-03T07:19:30.740Z,99964.21
2017-08-03T07:21:58.160Z,99965.95
2017-08-03T07:24:25.597Z,99961.30
2017-08-03T07:26:52.992Z,99954.26
2017-08-03T07:29:20.520Z,99952.28
2017-08-03T07:31:47.959Z,99953.64
2017-08-03T07:34:15.387Z,99958.75
2017-08-03T07:36:42.802Z,99948.81
2017-08-03T07:39:10.250Z,99947.03
2017-08-03T07:41:37.677Z,99945.05
2017-08-03T07:44:05.144Z,99948.78
2017-08-03T07:46:32.548Z,99945.88
2017-08-03T07:49:00.008Z,99960.05
2017-08-03T07:51:27.424Z,99955.51
2017-08-03T07:53:54.852Z,99966.81
2017-08-03T07:56:22.256Z,99967.94
2017-08-03T07:58:49.655Z,99964.05
2017-08-03T08:01:17.387Z,99971.58
2017-08-03T08:03:44.828Z,99977.52
2017-08-03T08:06:13.059Z,99974.16
2017-08-03T08:08:41.195Z,99972.05
2017-08-03T08:11:09.003Z,99973.97
2017-08-03T08:13:36.444Z,99981.69
2017-08-03T08:16:05.651Z,99991.32
2017-08-03T08:18:34.270Z,99988.77
2017-08-03T08:21:01.649Z,99984.00
2017-08-03T08:23:29.770Z,99977.86
2017-08-03T08:25:57.239Z,99985.03
2017-08-03T08:28:24.687Z,99979.70
2017-08-03T08:30:52.081Z,99974.37
2017-08-03T08:33:19.476Z,99981.72
2017-08-03T08:35:46.911Z,99976.52
2017-08-03T08:38:14.332Z,99979.34
2017-08-03T08:40:41.794Z,99976.20
2017-08-03T08:43:09.277Z,99978.25
2017-08-03T08:45:36.659Z,99973.89
2017-08-03T08:48:04.071Z,99956.07
2017-08-03T08:50:31.471Z,99937.34
2017-08-03T08:52:58.863Z,99952.73
2017-08-03T08:55:26.298Z,99965.50
2017-08-03T08:57:53.683Z,99962.06
2017-08-03T09:00:21.126Z,99948.02
2017-08-03T09:02:48.527Z,99960.44
2017-08-03T09:05:15.955Z,99959.28
2017-08-03T09:07:43.376Z,99970.03
2017-08-03T09:10:10.783Z,99968.81
2017-08-03T09:12:38.230Z,99954.14
2017-08-03T09:15:05.630Z,99931.54
2017-08-03T09:17:33.018Z,99957.16
2017-08-03T09:20:00.427Z,99964.89
2017-08-03T09:22:27.821Z,99961.27
2017-08-03T09:24:55.239Z,99959.27
2017-08-03T09:27:22.633Z,99939.19
2017-08-03T09:29:50.039Z,99929.86
2017-08-03T09:32:17.423Z,99918.20
2017-08-03T09:34:44.831Z,99906.67
2017-08-03T09:37:12.280Z,99916.17
2017-08-03T09:39:39.733Z,99888.31
2017-08-03T09:42:07.158Z,99893.58
2017-08-03T09:44:34.572Z,99904.83
2017-08-03T09:47:02.003Z,99906.89
2017-08-03T09:49:29.503Z,99904.80
2017-08-03T09:51:56.944Z,99900.70
2017-08-03T09:54:24.383Z,99902.78
2017-08-03T09:56:51.822Z,99892.84
2017-08-03T09:59:19.212Z,99893.81
2017-08-03T10:01:46.656Z,99894.37
2017-08-03T10:04:20.875Z,99896.31
2017-08-03T10:06:48.264Z,99896.15
2017-08-03T10:09:15.677Z,99908.45
2017-08-03T10:11:43.083Z,99901.55
2017-08-03T10:14:10.502Z,99906.55
2017-08-03T10:16:37.912Z,99895.20
2017-08-03T10:19:05.315Z,99882.33
2017-08-03T10:21:32.736Z,99884.33
2017-08-03T10:24:00.164Z,99885.80
2017-08-03T10:26:27.576Z,99894.72
2017-08-03T10:29:09.403Z,99883.59
2017-08-03T10:31:36.808Z,99889.56
2017-08-03T10:34:04.243Z,99889.30
2017-08-03T10:36:32.049Z,99888.69
2017-08-03T10:38:59.452Z,99900.42
2017-08-03T10:41:26.881Z,99894.98
2017-08-03T10:43:54.324Z,99890.45
2017-08-03T10:46:21.725Z,99897.08
2017-08-03T10:48:49.154Z,99904.72
2017-08-03T10:51:16.595Z,99909.31
2017-08-03T10:53:44.031Z,99903.93
2017-08-03T10:56:11.473Z,99912.59
2017-08-03T10:58:38.893Z,99928.67
2017-08-03T11:01:06.318Z,99940.06
2017-08-03T11:03:33.724Z,99947.52
2017-08-03T11:06:01.175Z,99943.30
2017-08-03T11:08:28.581Z,99947.50
2017-08-03T11:10:55.975Z,99952.43
2017-08-03T11:13:23.371Z,99951.12
2017-08-03T11:15:58.028Z,99946.48
2017-08-03T11:18:25.451Z,99963.81
2017-08-03T11:20:52.884Z,99956.73
2017-08-03T11:23:20.295Z,99959.34
2017-08-03T11:25:47.742Z,99965.59
2017-08-03T11:28:15.147Z,99966.59
2017-08-03T11:30:42.597Z,99955.64
2017-08-03T11:33:09.983Z,99957.30
2017-08-03T11:35:37.399Z,99958.30
2017-08-03T11:38:04.838Z,99957.86
2017-08-03T11:40:32.236Z,99958.91
2017-08-03T11:42:59.734Z,99957.35
2017-08-03T11:45:27.132Z,99958.59
2017-08-03T11:47:54.527Z,99963.70
2017-08-03T11:50:22.015Z,99956.89
2017-08-03T11:52:49.403Z,99961.94
2017-08-03T11:55:16.809Z,99965.09
2017-08-03T11:57:44.233Z,99963.53
2017-08-03T12:00:11.627Z,99958.38
2017-08-03T12:02:45.579Z,99953.73
2017-08-03T12:05:14.108Z,99963.66
2017-08-03T12:07:41.498Z,99961.78
2017-08-03T12:10:08.887Z,99964.62
2017-08-03T12:12:37.139Z,99972.91
2017-08-03T12:15:04.521Z,99966.84
2017-08-03T12:17:31.927Z,99969.97
2017-08-03T12:19:59.364Z,99972.47
2017-08-03T12:22:26.804Z,99977.34
2017-08-03T12:24:54.199Z,99989.22
2017-08-03T12:27:21.619Z,99981.10
2017-08-03T12:29:49.040Z,99992.32
2017-08-03T12:32:16.480Z,99991.93
2017-08-03T12:34:45.824Z,99988.36
2017-08-03T12:37:13.240Z,99983.42
2017-08-03T12:39:40.654Z,99994.31
2017-08-03T12:42:08.099Z,99995.78
2017-08-03T12:44:35.498Z,99992.06
2017-08-03T12:47:02.964Z,99992.70
2017-08-03T12:49:30.387Z,99988.23
2017-08-03T12:51:57.820Z,99984.41
2017-08-03T12:54:25.237Z,99971.27
2017-08-03T12:56:52.682Z,99973.20
2017-08-03T12:59:20.098Z,99979.72
2017-08-03T13:01:47.482Z,99969.98
2017-08-03T13:04:14.897Z,99960.17
2017-08-03T13:06:42.283Z,99953.81
2017-08-03T13:09:09.731Z,99942.16
2017-08-03T13:11:37.127Z,99938.61
2017-08-03T13:14:04.526Z,99949.95
2017-08-03T13:16:31.919Z,99955.50
2017-08-03T13:18:59.317Z,99945.93
2017-08-03T13:21:26.739Z,99948.03
2017-08-03T13:23:54.139Z,99949.20
2017-08-03T13:26:21.603Z,99945.45
2017-08-03T13:28:49.032Z,99942.73
2017-08-03T13:31:16.404Z,99973.84
2017-08-03T13:33:43.804Z,99936.94
2017-08-03T13:36:11.175Z,99950.36
2017-08-03T13:38:38.631Z,99942.15
2017-08-03T13:41:06.019Z,99935.00
2017-08-03T13:43:33.426Z,99931.98
2017-08-03T13:46:00.871Z,99928.81
2017-08-03T13:48:28.272Z,99920.52
2017-08-03T13:50:55.693Z,99913.28
2017-08-03T13:53:23.119Z,99908.80
2017-08-03T13:55:50.525Z,99914.64
2017-08-03T13:58:17.936Z,99904.59
2017-08-03T14:00:45.359Z,99907.73
2017-08-03T14:03:12.789Z,99909.70
2017-08-03T14:05:40.212Z,99897.17
2017-08-03T14:08:07.625Z,99890.86
2017-08-03T14:10:35.058Z,99896.63
2017-08-03T14:13:02.506Z,99902.34
2017-08-03T14:15:29.919Z,99894.72
2017-08-03T14:17:59.422Z,99888.77
2017-08-03T14:20:26.807Z,99900.50
2017-08-03T14:22:54.244Z,99898.63
2017-08-03T14:25:21.657Z,99902.06
2017-08-03T14:27:49.103Z,99894.20
2017-08-03T14:30:16.507Z,99900.33
2017-08-03T14:32:43.915Z,99901.97
2017-08-03T14:35:11.366Z,99898.89
2017-08-03T14:37:38.743Z,99897.02
2017-08-03T14:40:06.135Z,99901.63
2017-08-03T14:42:33.531Z,99904.27
2017-08-03T14:45:00.946Z,99901.37
2017-08-03T14:47:28.355Z,99903.13
2017-08-03T14:49:56.758Z,99896.05
2017-08-03T14:52:24.188Z,99901.04
2017-08-03T14:54:51.623Z,99901.15
2017-08-03T14:57:19.031Z,99915.34
2017-08-03T14:59:46.432Z,99907.61
2017-08-03T15:02:13.869Z,99912.67
2017-08-03T15:04:41.327Z,99907.22
2017-08-03T15:07:08.755Z,99912.16
2017-08-03T15:09:36.252Z,99899.81
2017-08-03T15:12:04.747Z,99923.28
2017-08-03T15:14:32.174Z,99910.63
2017-08-03T15:16:59.567Z,99901.86
2017-08-03T15:19:27.207Z,99902.59
2017-08-03T15:21:55.338Z,99916.04
2017-08-03T15:24:22.738Z,99916.83
2017-08-03T15:26:50.183Z,99915.03
2017-08-03T15:29:18.135Z,99908.45
2017-08-03T15:31:46.147Z,99908.79
2017-08-03T15:34:13.531Z,99912.55
2017-08-03T15:36:40.963Z,99912.08
2017-08-03T15:39:08.345Z,99927.22
2017-08-03T15:41:35.744Z,99935.55
2017-08-03T15:44:03.170Z,99922.30
2017-08-03T15:46:30.564Z,99927.52
2017-08-03T15:48:57.975Z,99927.69
2017-08-03T15:51:25.413Z,99920.28
2017-08-03T15:53:52.873Z,99922.77
2017-08-03T15:56:20.287Z,99923.59
2017-08-03T15:58:47.775Z,99928.42
2017-08-03T16:01:15.169Z,99921.23
2017-08-03T16:03:56.539Z,99922.61
2017-08-03T16:06:23.964Z,99923.67
2017-08-03T16:08:51.400Z,99927.76
2017-08-03T16:11:18.812Z,99923.36
2017-08-03T16:13:46.203Z,99920.88
2017-08-03T16:16:13.607Z,99913.39
2017-08-03T16:18:40.999Z,99926.83
2017-08-03T16:21:08.403Z,99929.14
2017-08-03T16:23:35.804Z,99921.30
2017-08-03T16:26:03.207Z,99929.31
2017-08-03T16:28:30.602Z,99922.52
2017-08-03T16:30:58.017Z,99927.38
2017-08-03T16:33:25.411Z,99921.90
2017-08-03T16:35:52.821Z,99923.37
2017-08-03T16:38:20.211Z,99927.77
2017-08-03T16:40:47.610Z,99914.19
2017-08-03T16:43:15.007Z,99911.22
2017-08-03T16:45:42.400Z,99919.16
2017-08-03T16:48:09.794Z,99925.45
2017-08-03T16:50:37.211Z,99925.09
2017-08-03T16:53:04.603Z,99926.07
2017-08-03T16:55:32.009Z,99927.76
2017-08-03T16:57:59.391Z,99933.59
2017-08-03T17:00:26.815Z,99935.75
2017-08-03T17:02:54.212Z,99930.48
2017-08-03T17:05:21.610Z,99929.53
2017-08-03T17:07:49.015Z,99925.19
2017-08-03T17:10:16.430Z,99930.32
2017-08-03T17:12:43.837Z,99939.18
2017-08-03T17:15:11.232Z,99938.23
2017-08-03T17:17:38.651Z,99938.72
2017-08-03T17:20:06.063Z,99930.80
2017-08-03T17:22:33.449Z,99926.28
2017-08-03T17:25:00.912Z,99927.95
2017-08-03T17:27:28.328Z,99939.44
2017-08-03T17:29:55.789Z,99943.17
2017-08-03T17:32:23.201Z,99935.28
2017-08-03T17:34:50.661Z,99936.30
2017-08-03T17:37:18.060Z,99954.80
2017-08-03T17:39:45.461Z,99942.00
2017-08-03T17:42:12.886Z,99940.26
2017-08-03T17:44:40.283Z,99950.36
2017-08-03T17:47:07.713Z,99957.20
2017-08-03T17:49:35.120Z,99949.62
2017-08-03T17:52:02.524Z,99951.38
2017-08-03T17:54:29.919Z,99949.59
2017-08-03T17:56:57.330Z,99951.71
2017-08-03T17:59:24.762Z,99959.56
2017-08-03T18:01:52.199Z,99961.99
2017-08-03T18:04:19.599Z,99959.58
2017-08-03T18:06:46.998Z,99957.41
2017-08-03T18:09:14.403Z,99964.44
2017-08-03T18:11:41.800Z,99969.00
2017-08-03T18:14:09.212Z,99976.47
2017-08-03T18:16:37.672Z,99977.27
2017-08-03T18:19:05.083Z,99977.67
2017-08-03T18:21:32.492Z,99983.74
2017-08-03T18:23:59.921Z,99983.01
2017-08-03T18:26:27.336Z,99985.23
2017-08-03T18:28:54.737Z,99987.70
2017-08-03T18:31:22.148Z,99983.25
2017-08-03T18:33:49.557Z,99987.59
2017-08-03T18:36:16.955Z,99989.48
2017-08-03T18:38:44.404Z,99985.98
2017-08-03T18:41:11.818Z,99999.72
2017-08-03T18:43:39.304Z,99998.20
2017-08-03T18:46:06.703Z,99989.48
2017-08-03T18:48:34.151Z,99993.86
2017-08-03T18:51:01.608Z,99993.59
2017-08-03T18:53:29.020Z,100001.19
2017-08-03T18:55:56.491Z,100011.18
2017-08-03T18:58:23.996Z,100012.95
2017-08-03T19:00:51.439Z,100015.06
2017-08-03T19:03:18.855Z,100017.56
2017-08-03T19:05:49.195Z,100024.42
2017-08-03T19:08:16.611Z,100017.88
2017-08-03T19:10:45.984Z,100015.09
2017-08-03T19:13:13.399Z,100021.61
2017-08-03T19:15:44.396Z,100025.61
2017-08-03T19:18:11.863Z,100024.30
2017-08-03T19:20:39.260Z,100028.48
2017-08-03T19:23:06.668Z,100033.84
2017-08-03T19:25:34.141Z,100035.17
2017-08-03T19:28:01.548Z,100039.58
2017-08-03T19:30:28.971Z,100044.35
2017-08-03T19:32:56.392Z,100044.67
2017-08-03T19:35:23.796Z,100045.45
2017-08-03T19:37:51.229Z,100044.73
2017-08-03T19:40:18.633Z,100045.96
2017-08-03T19:42:46.026Z,100063.65
2017-08-03T19:45:13.431Z,100071.33
2017-08-03T19:47:40.830Z,100069.44
2017-08-03T19:50:08.235Z,100067.93
2017-08-03T19:52:35.641Z,100065.11
2017-08-03T19:55:03.050Z,100070.40
2017-08-03T19:57:30.451Z,100072.88
2017-08-03T19:59:57.862Z,100065.83
2017-08-03T20:02:25.267Z,100062.41
2017-08-03T20:04:52.671Z,100054.98
2017-08-03T20:07:31.960Z,100053.81
2017-08-03T20:10:00.172Z,100058.81
2017-08-03T20:12:27.578Z,100059.73
2017-08-03T20:14:54.980Z,100052.69
2017-08-03T20:17:22.379Z,100049.66
2017-08-03T20:19:49.779Z,100049.97
2017-08-03T20:22:17.198Z,100050.24
2017-08-03T20:24:44.595Z,100063.02
2017-08-03T20:27:11.991Z,100053.86
2017-08-03T20:29:42.445Z,100047.53
2017-08-03T20:32:09.895Z,100055.77
2017-08-03T20:34:37.300Z,100060.41
2017-08-03T20:37:04.695Z,100060.41
2017-08-03T20:39:32.103Z,100058.28
2017-08-03T20:41:59.502Z,100060.89
2017-08-03T20:44:26.925Z,100063.14
2017-08-03T20:46:54.327Z,100061.84
2017-08-03T20:49:21.719Z,100063.30
2017-08-03T20:51:49.127Z,100065.48
2017-08-03T20:54:16.527Z,100059.17
2017-08-03T20:56:43.931Z,100056.84
2017-08-03T20:59:11.334Z,100056.53
2017-08-03T21:01:38.743Z,100060.76
2017-08-03T21:04:06.156Z,100053.58
2017-08-03T21:06:33.560Z,100058.23
2017-08-03T21:09:00.965Z,100052.55
2017-08-03T21:11:28.366Z,100053.23
2017-08-03T21:13:55.767Z,100053.81
2017-08-03T21:16:23.163Z,100045.00
2017-08-03T21:18:50.587Z,100038.23
2017-08-03T21:21:17.991Z,100040.33
2017-08-03T21:23:45.391Z,100043.42
2017-08-03T21:26:12.798Z,100045.92
2017-08-03T21:28:40.192Z,100044.03
2017-08-03T21:31:07.600Z,100039.65
2017-08-03T21:33:34.999Z,100047.36
2017-08-03T21:36:02.408Z,100046.74
2017-08-03T21:38:29.815Z,100041.39
2017-08-03T21:40:57.224Z,100040.64
2017-08-03T21:43:24.636Z,100040.16
2017-08-03T21:45:52.037Z,100039.28
2017-08-03T21:48:19.455Z,100034.36
2017-08-03T21:50:46.852Z,100045.70
2017-08-03T21:53:14.256Z,100052.55
2017-08-03T21:55:41.663Z,100061.17
2017-08-03T21:58:09.059Z,100055.88
2017-08-03T22:00:48.179Z,100062.28
2017-08-03T22:03:15.583Z,100069.75
2017-08-03T22:05:43.004Z,100072.89
2017-08-03T22:08:10.403Z,100076.42
2017-08-03T22:10:37.835Z,100072.62
2017-08-03T22:13:05.243Z,100078.04
2017-08-03T22:15:32.643Z,100079.39
2017-08-03T22:18:00.048Z,100074.13
2017-08-03T22:20:27.465Z,100076.33
2017-08-03T22:22:54.863Z,100072.83
2017-08-03T22:25:22.275Z,100075.28
2017-08-03T22:27:49.675Z,100059.75
2017-08-03T22:30:17.083Z,100071.95
2017-08-03T22:32:44.482Z,100069.66
2017-08-03T22:35:11.887Z,100061.02
2017-08-03T22:37:39.288Z,100061.84
2017-08-03T22:40:06.692Z,100055.22
2017-08-03T22:42:34.087Z,100063.09
2017-08-03T22:45:01.495Z,100059.64
2017-08-03T22:47:28.897Z,100054.64
2017-08-03T22:49:56.303Z,100061.30
2017-08-03T22:52:23.699Z,100056.98
2017-08-03T22:54:51.121Z,100058.33
2017-08-03T22:57:18.519Z,100050.78
2017-08-03T22:59:45.916Z,100047.69
2017-08-03T23:02:13.330Z,100046.76
2017-08-03T23:04:40.740Z,100041.72
2017-08-03T23:07:08.139Z,100042.66
2017-08-03T23:09:35.559Z,100040.47
2017-08-03T23:12:02.955Z,100041.97
2017-08-03T23:14:30.370Z,100037.75
2017-08-03T23:16:57.780Z,100039.94
2017-08-03T23:19:25.192Z,100034.16
2017-08-03T23:21:52.591Z,100033.22
2017-08-03T23:24:20.008Z,100037.84
2017-08-03T23:26:47.399Z,100029.61
2017-08-03T23:29:14.800Z,100035.33
2017-08-03T23:31:42.417Z,100034.28
2017-08-03T23:34:09.820Z,100033.63
2017-08-03T23:36:37.211Z,100020.52
2017-08-03T23:39:04.636Z,100026.48
2017-08-03T23:41:32.043Z,100027.19
2017-08-03T23:43:59.450Z,100029.10
2017-08-03T23:46:26.867Z,100028.16
2017-08-03T23:48:54.267Z,100025.05
2017-08-03T23:51:21.662Z,100031.92
2017-08-03T23:53:49.088Z,100030.31
2017-08-03T23:56:16.487Z,100029.10
2017-08-03T23:58:43.891Z,100036.42
